Time;durP1;ratioP1;P1;durP2;ratioP2;P2;SDS_P1;SDS_P2;PMS_P1;PMS_P2;Temp;Humidity;BMP_temperature;BMP_pressure;BME280_temperature;BME280_humidity;BME280_pressure;Samples;Min_cycle;Max_cycle;Signal;HPM_P1;HPM_P2
2022/05/14 00:00:47;;;;;;;15.67;7.03;;;12.10;99.90;;;;;;5091720;28;21058;-59
2022/05/14 00:03:13;;;;;;;10.97;5.80;;;12.10;99.90;;;;;;5104240;27;20466;-59
2022/05/14 00:05:39;;;;;;;12.50;6.90;;;12.10;99.90;;;;;;5112226;27;20449;-59
2022/05/14 00:08:05;;;;;;;9.83;5.93;;;12.00;99.90;;;;;;5109839;28;20191;-59
2022/05/14 00:10:32;;;;;;;20.50;6.80;;;12.00;99.90;;;;;;5109708;28;20177;-59
2022/05/14 00:13:04;;;;;;;8.60;5.87;;;11.90;99.90;;;;;;5105381;27;20420;-59
2022/05/14 00:15:37;;;;;;;5.77;5.27;;;11.90;99.90;;;;;;5093511;27;20423;-60
2022/05/14 00:18:04;;;;;;;9.20;5.67;;;11.90;99.90;;;;;;5112032;27;20460;-57
2022/05/14 00:20:30;;;;;;;8.73;5.70;;;11.90;99.90;;;;;;5112597;27;20429;-57
2022/05/14 00:22:55;;;;;;;11.80;6.87;;;11.80;99.90;;;;;;5090117;28;20435;-59
2022/05/14 00:25:22;;;;;;;15.10;7.13;;;11.80;99.90;;;;;;5106573;27;20173;-59
2022/05/14 00:27:49;;;;;;;7.33;5.87;;;11.80;99.90;;;;;;5113722;27;20165;-59
2022/05/14 00:30:15;;;;;;;8.53;6.40;;;11.80;99.90;;;;;;5109207;28;20410;-59
2022/05/14 00:32:41;;;;;;;7.77;5.97;;;11.70;99.90;;;;;;5109857;27;20435;-59
2022/05/14 00:35:09;;;;;;;13.80;6.53;;;11.70;99.90;;;;;;5105746;27;20832;-59
2022/05/14 00:37:35;;;;;;;6.97;5.90;;;11.70;99.90;;;;;;5109324;28;20414;-59
2022/05/14 00:40:11;;;;;;;8.83;6.10;;;11.70;99.90;;;;;;5106977;28;20955;-58
2022/05/14 00:42:37;;;;;;;10.90;6.20;;;11.70;99.90;;;;;;5108235;28;21005;-59
2022/05/14 00:45:06;;;;;;;7.47;5.07;;;11.70;99.90;;;;;;5114662;27;20476;-59
2022/05/14 00:47:36;;;;;;;7.37;5.83;;;11.60;99.90;;;;;;5103650;27;20455;-59
2022/05/14 00:50:16;;;;;;;12.60;5.53;;;11.60;99.90;;;;;;5106631;27;20455;-58
2022/05/14 00:52:42;;;;;;;19.87;5.63;;;11.60;99.90;;;;;;5107342;28;20442;-55
2022/05/14 00:55:08;;;;;;;13.17;5.97;;;11.50;99.90;;;;;;5097578;28;20423;-59
2022/05/14 00:57:40;;;;;;;12.20;5.63;;;11.50;99.90;;;;;;5105280;28;20525;-59
2022/05/14 01:00:11;;;;;;;8.07;5.17;;;11.50;99.90;;;;;;5109147;27;20835;-60
2022/05/14 01:02:38;;;;;;;9.70;5.07;;;11.50;99.90;;;;;;5100461;27;21037;-59
2022/05/14 01:05:05;;;;;;;7.90;4.93;;;11.40;99.90;;;;;;5103478;27;20422;-59
2022/05/14 01:07:33;;;;;;;9.83;5.07;;;11.40;99.90;;;;;;5100401;27;20422;-60
2022/05/14 01:10:05;;;;;;;7.63;5.10;;;11.40;99.90;;;;;;5085917;28;21179;-60
2022/05/14 01:12:33;;;;;;;8.87;5.47;;;11.40;99.90;;;;;;5105858;28;20450;-61
2022/05/14 01:15:19;;;;;;;9.03;5.27;;;11.40;99.90;;;;;;5101888;28;20435;-59
2022/05/14 01:17:45;;;;;;;6.37;4.93;;;11.30;99.90;;;;;;5107564;28;20426;-59
2022/05/14 01:20:11;;;;;;;8.77;5.20;;;11.30;99.90;;;;;;5105782;28;20417;-60
2022/05/14 01:22:43;;;;;;;8.43;5.20;;;11.30;99.90;;;;;;5103488;28;20566;-60
2022/05/14 01:28:08;;;;;;;9.83;5.40;;;11.30;99.90;;;;;;5104056;28;20458;-60
2022/05/14 01:30:34;;;;;;;10.53;4.97;;;11.20;99.90;;;;;;5104286;28;20499;-60
2022/05/14 01:33:06;;;;;;;11.00;6.10;;;11.20;99.90;;;;;;5089024;28;20173;-60
2022/05/14 01:35:37;;;;;;;6.63;5.10;;;11.20;99.90;;;;;;5101097;27;20184;-61
2022/05/14 01:38:03;;;;;;;6.10;4.70;;;11.20;99.90;;;;;;5105673;28;20429;-60
2022/05/14 01:40:32;;;;;;;7.87;5.40;;;11.20;99.90;;;;;;5100935;28;20427;-60
2022/05/14 01:42:58;;;;;;;7.60;5.77;;;11.10;99.90;;;;;;5106966;28;21698;-59
2022/05/14 01:45:25;;;;;;;15.47;6.20;;;11.10;99.90;;;;;;5106418;28;20510;-60
2022/05/14 01:47:51;;;;;;;12.70;4.90;;;11.10;99.90;;;;;;5106653;28;20422;-60
2022/05/14 01:50:17;;;;;;;8.93;5.57;;;11.00;99.90;;;;;;5107891;28;20930;-60
2022/05/14 01:52:43;;;;;;;9.03;5.50;;;11.00;99.90;;;;;;5107670;28;20455;-59
2022/05/14 01:55:09;;;;;;;6.33;5.13;;;11.00;99.90;;;;;;5101995;28;20177;-60
2022/05/14 01:57:35;;;;;;;8.07;5.37;;;11.00;99.90;;;;;;5090242;28;20192;-60
2022/05/14 02:00:08;;;;;;;8.60;5.53;;;11.00;99.90;;;;;;5105569;28;20407;-59
2022/05/14 02:02:34;;;;;;;8.60;5.23;;;10.90;99.90;;;;;;5103090;28;20224;-60
2022/05/14 02:05:00;;;;;;;6.40;4.80;;;10.90;99.90;;;;;;5105117;28;20572;-60
2022/05/14 02:07:26;;;;;;;7.40;4.87;;;10.90;99.90;;;;;;5109912;28;20173;-59
2022/05/14 02:09:51;;;;;;;7.33;5.20;;;10.90;99.90;;;;;;5107714;28;20256;-60
2022/05/14 02:12:17;;;;;;;11.30;5.10;;;10.90;99.90;;;;;;5106468;28;20565;-59
2022/05/14 02:14:44;;;;;;;7.63;5.50;;;10.80;99.90;;;;;;5108927;28;20693;-59
2022/05/14 02:17:10;;;;;;;11.37;4.80;;;10.80;99.90;;;;;;5105412;28;20167;-60
2022/05/14 02:19:35;;;;;;;7.30;5.73;;;10.80;99.90;;;;;;5089185;28;20454;-60
2022/05/14 02:22:01;;;;;;;8.83;5.80;;;10.80;99.90;;;;;;5107010;28;20213;-59
2022/05/14 02:24:27;;;;;;;7.20;4.90;;;10.80;99.90;;;;;;5105831;28;20270;-60
2022/05/14 02:26:52;;;;;;;10.97;5.20;;;10.70;99.90;;;;;;5118090;28;20179;-60
2022/05/14 02:29:19;;;;;;;5.10;4.60;;;10.70;99.90;;;;;;5110638;28;20169;-60
2022/05/14 02:31:45;;;;;;;13.07;5.30;;;10.70;99.90;;;;;;5111447;28;20189;-59
2022/05/14 02:34:10;;;;;;;5.53;5.00;;;10.70;99.90;;;;;;5107942;28;20765;-60
2022/05/14 02:36:36;;;;;;;11.93;5.73;;;10.60;99.90;;;;;;5092940;28;20191;-60
2022/05/14 02:39:03;;;;;;;8.87;5.50;;;10.60;99.90;;;;;;5110964;28;20173;-59
2022/05/14 02:41:28;;;;;;;6.83;4.60;;;10.60;99.90;;;;;;5112720;27;20193;-58
2022/05/14 02:43:54;;;;;;;6.93;5.20;;;10.60;99.90;;;;;;5110378;28;20886;-60
2022/05/14 02:46:20;;;;;;;10.83;5.40;;;10.60;99.90;;;;;;5110977;28;20177;-58
2022/05/14 02:48:46;;;;;;;12.47;5.03;;;10.60;99.90;;;;;;5113084;27;20198;-60
2022/05/14 02:51:11;;;;;;;10.90;4.67;;;10.50;99.90;;;;;;5109965;28;20201;-60
2022/05/14 02:53:38;;;;;;;5.07;4.57;;;10.50;99.90;;;;;;5111273;27;20180;-60
2022/05/14 02:56:04;;;;;;;9.93;4.50;;;10.50;99.90;;;;;;5109709;28;20499;-59
2022/05/14 03:01:14;;;;;;;14.00;4.83;;;10.50;99.90;;;;;;5105835;28;20457;-59
2022/05/14 03:03:40;;;;;;;5.70;4.40;;;10.40;99.90;;;;;;5109505;27;20461;-60
2022/05/14 03:06:06;;;;;;;6.73;4.60;;;10.40;99.90;;;;;;5109557;28;20161;-60
2022/05/14 03:08:32;;;;;;;5.80;4.60;;;10.40;99.90;;;;;;5110629;27;20177;-58
2022/05/14 03:10:57;;;;;;;8.20;4.30;;;10.40;99.90;;;;;;5109375;28;21493;-59
2022/05/14 03:13:23;;;;;;;9.30;4.50;;;10.40;99.90;;;;;;5111001;28;20170;-59
2022/05/14 03:15:48;;;;;;;5.03;4.00;;;10.30;99.90;;;;;;5110883;28;20176;-59
2022/05/14 03:18:14;;;;;;;6.17;4.60;;;10.30;99.90;;;;;;5114776;27;20185;-59
2022/05/14 03:20:40;;;;;;;9.50;4.57;;;10.30;99.90;;;;;;5115470;27;20200;-59
2022/05/14 03:23:05;;;;;;;9.60;5.10;;;10.30;99.90;;;;;;5109335;27;20246;-61
2022/05/14 03:25:31;;;;;;;4.10;3.70;;;10.20;99.90;;;;;;5106367;28;20219;-60
2022/05/14 03:27:57;;;;;;;6.63;4.97;;;10.20;99.90;;;;;;5110836;28;20649;-60
2022/05/14 03:30:22;;;;;;;6.97;3.90;;;10.20;99.90;;;;;;5107180;28;20213;-59
2022/05/14 03:32:48;;;;;;;7.80;3.53;;;10.20;99.90;;;;;;5112876;27;20177;-60
2022/05/14 03:35:13;;;;;;;8.33;3.70;;;10.10;99.90;;;;;;5110310;28;20176;-59
2022/05/14 03:37:39;;;;;;;10.43;3.60;;;10.10;99.90;;;;;;5110334;28;20248;-60
2022/05/14 03:40:07;;;;;;;6.93;3.97;;;10.10;99.90;;;;;;5110249;28;20238;-59
2022/05/14 03:42:33;;;;;;;7.50;4.07;;;10.10;99.90;;;;;;5109559;27;20211;-60
2022/05/14 03:44:58;;;;;;;5.63;3.60;;;10.00;99.90;;;;;;5109804;28;21142;-60
2022/05/14 03:47:24;;;;;;;7.00;4.07;;;10.00;99.90;;;;;;5110437;28;20169;-60
2022/05/14 03:49:50;;;;;;;7.43;3.50;;;10.00;99.90;;;;;;5119924;27;20252;-60
2022/05/14 03:52:16;;;;;;;9.43;4.17;;;10.00;99.90;;;;;;5105124;28;20201;-60
2022/05/14 03:54:43;;;;;;;6.60;3.80;;;10.00;99.90;;;;;;5109162;28;20193;-60
2022/05/14 03:57:09;;;;;;;8.07;3.80;;;9.90;99.90;;;;;;5109616;28;21030;-59
2022/05/14 03:59:35;;;;;;;6.57;4.30;;;9.90;99.90;;;;;;5107132;28;20482;-60
2022/05/14 04:02:02;;;;;;;6.90;5.10;;;9.90;99.90;;;;;;5107122;28;20466;-60
2022/05/14 04:04:27;;;;;;;5.90;4.63;;;9.80;99.90;;;;;;5115799;27;20810;-59
2022/05/14 04:06:53;;;;;;;6.57;4.50;;;9.80;99.90;;;;;;5103057;28;21151;-60
2022/05/14 04:09:20;;;;;;;6.60;4.17;;;9.80;99.90;;;;;;5110374;28;20215;-60
2022/05/14 04:11:46;;;;;;;4.63;4.10;;;9.80;99.90;;;;;;5100690;28;20219;-59
2022/05/14 04:14:12;;;;;;;6.43;4.03;;;9.80;99.90;;;;;;5109501;28;20411;-60
2022/05/14 04:16:38;;;;;;;4.90;3.70;;;9.80;99.90;;;;;;5108092;28;20965;-59
2022/05/14 04:19:04;;;;;;;4.87;4.00;;;9.80;99.90;;;;;;5113797;27;20171;-60
2022/05/14 04:21:32;;;;;;;12.13;5.00;;;9.80;99.90;;;;;;5099340;28;20906;-59
2022/05/14 04:23:59;;;;;;;6.97;4.57;;;9.80;99.90;;;;;;5095717;28;20450;-59
2022/05/14 04:26:25;;;;;;;9.10;4.77;;;9.80;99.90;;;;;;5115000;27;20470;-59
2022/05/14 04:28:51;;;;;;;10.50;4.73;;;9.80;99.90;;;;;;5108769;28;20939;-60
2022/05/14 04:31:17;;;;;;;10.90;4.63;;;9.80;99.90;;;;;;5110548;28;20457;-59
2022/05/14 04:33:43;;;;;;;5.10;3.83;;;9.80;99.90;;;;;;5108433;27;20285;-59
2022/05/14 04:36:09;;;;;;;5.00;4.20;;;9.80;99.90;;;;;;5106688;28;20423;-60
2022/05/14 04:38:35;;;;;;;9.27;4.90;;;9.80;99.90;;;;;;5109968;28;20411;-59
2022/05/14 04:41:01;;;;;;;10.10;4.53;;;9.80;99.90;;;;;;5110219;28;20189;-60
2022/05/14 04:43:27;;;;;;;10.43;4.63;;;9.90;99.90;;;;;;5110641;27;20456;-60
2022/05/14 04:45:52;;;;;;;5.07;4.00;;;9.90;99.90;;;;;;5108418;28;20169;-60
2022/05/14 04:48:18;;;;;;;9.47;4.90;;;9.90;99.90;;;;;;5107917;27;20172;-60
2022/05/14 04:50:45;;;;;;;5.73;4.80;;;9.90;99.90;;;;;;5099889;27;20236;-60
2022/05/14 04:53:12;;;;;;;5.33;4.17;;;10.00;99.90;;;;;;5105218;27;20173;-59
2022/05/14 04:55:38;;;;;;;5.10;4.50;;;10.00;99.90;;;;;;5106655;28;20431;-59
2022/05/14 04:58:07;;;;;;;13.13;4.80;;;10.10;99.90;;;;;;5109198;28;20422;-58
2022/05/14 05:00:34;;;;;;;7.33;4.77;;;10.20;99.90;;;;;;5104941;28;21386;-60
2022/05/14 05:03:19;;;;;;;8.23;4.80;;;10.20;99.90;;;;;;5109555;27;20455;-60
2022/05/14 05:05:46;;;;;;;7.03;4.67;;;10.20;99.90;;;;;;5102711;27;20487;-60
2022/05/14 05:08:13;;;;;;;11.83;4.97;;;10.30;99.90;;;;;;5104607;28;20422;-60
2022/05/14 05:10:38;;;;;;;14.60;4.50;;;10.40;99.90;;;;;;5107742;28;20438;-60
2022/05/14 05:13:09;;;;;;;7.97;4.50;;;10.50;99.90;;;;;;5108789;28;20831;-60
2022/05/14 05:15:35;;;;;;;7.50;4.70;;;10.50;99.90;;;;;;5099988;28;20169;-60
2022/05/14 05:18:01;;;;;;;5.30;4.40;;;10.50;99.90;;;;;;5107768;28;20437;-59
2022/05/14 05:20:27;;;;;;;13.70;5.50;;;10.50;99.90;;;;;;5103257;27;20192;-60
2022/05/14 05:22:52;;;;;;;8.13;4.80;;;10.50;99.90;;;;;;5109124;28;20443;-60
2022/05/14 05:25:18;;;;;;;9.83;4.73;;;10.50;99.90;;;;;;5085636;28;20256;-59
2022/05/14 05:27:44;;;;;;;6.80;4.43;;;10.50;99.90;;;;;;5107789;28;20177;-59
2022/05/14 05:30:11;;;;;;;18.37;4.30;;;10.60;99.90;;;;;;5108564;28;20184;-61
2022/05/14 05:32:37;;;;;;;8.17;5.20;;;10.70;99.90;;;;;;5107909;28;20989;-60
2022/05/14 05:35:04;;;;;;;5.20;4.70;;;10.80;99.90;;;;;;5105901;28;20430;-59
2022/05/14 05:37:30;;;;;;;7.40;4.83;;;10.90;99.90;;;;;;5091790;28;20507;-60
2022/05/14 05:39:55;;;;;;;6.37;4.37;;;11.00;99.90;;;;;;5103615;28;20507;-59
2022/05/14 05:42:21;;;;;;;9.00;4.90;;;11.00;99.90;;;;;;5106476;28;20288;-60
2022/05/14 05:44:46;;;;;;;10.60;4.80;;;11.00;99.90;;;;;;5109205;28;20177;-60
2022/05/14 05:47:12;;;;;;;7.53;5.60;;;11.10;99.90;;;;;;5087462;28;20177;-60
2022/05/14 05:49:39;;;;;;;9.47;5.70;;;11.10;99.90;;;;;;5098487;28;20169;-60
2022/05/14 05:52:05;;;;;;;6.17;5.10;;;11.10;99.90;;;;;;5102156;28;20618;-60
2022/05/14 05:57:15;;;;;;;14.90;6.03;;;11.10;99.90;;;;;;5104239;28;20453;-60
2022/05/14 05:59:41;;;;;;;16.07;5.60;;;11.20;99.90;;;;;;5103367;28;20443;-60
2022/05/14 06:02:08;;;;;;;10.20;5.10;;;11.30;99.90;;;;;;5109941;28;20442;-60
2022/05/14 06:04:34;;;;;;;8.63;5.40;;;11.50;99.90;;;;;;5109203;28;20454;-60
2022/05/14 06:07:00;;;;;;;10.20;5.53;;;11.60;99.90;;;;;;5112870;28;20430;-60
2022/05/14 06:09:26;;;;;;;9.07;5.37;;;11.70;99.90;;;;;;5115895;27;20423;-60
2022/05/14 06:11:52;;;;;;;10.30;5.10;;;11.80;99.90;;;;;;5115627;27;20467;-59
2022/05/14 06:14:21;;;;;;;7.53;4.73;;;11.90;99.90;;;;;;5107151;27;20186;-60
2022/05/14 06:16:48;;;;;;;11.43;4.90;;;12.10;99.90;;;;;;5103649;27;20476;-59
2022/05/14 06:19:14;;;;;;;7.47;5.00;;;12.30;99.90;;;;;;5096186;28;20935;-60
2022/05/14 06:21:39;;;;;;;7.03;4.97;;;12.40;99.90;;;;;;5112325;28;20507;-61
2022/05/14 06:24:07;;;;;;;8.17;5.00;;;12.50;99.90;;;;;;5111692;27;20880;-59
2022/05/14 06:26:33;;;;;;;8.53;5.00;;;12.50;99.90;;;;;;5108665;27;20259;-60
2022/05/14 06:28:59;;;;;;;6.90;5.20;;;12.50;99.90;;;;;;5118584;27;21010;-60
2022/05/14 06:31:25;;;;;;;10.87;4.97;;;12.60;99.90;;;;;;5113228;27;20439;-60
2022/05/14 06:33:51;;;;;;;5.77;4.33;;;12.70;99.90;;;;;;5104081;27;20436;-60
2022/05/14 06:36:17;;;;;;;9.23;4.90;;;12.90;99.90;;;;;;5112973;27;20438;-60
2022/05/14 06:38:43;;;;;;;7.67;4.83;;;13.10;99.90;;;;;;5111212;28;20200;-60
2022/05/14 06:41:11;;;;;;;10.27;4.70;;;13.30;99.90;;;;;;5106295;27;20799;-60
2022/05/14 06:43:38;;;;;;;10.10;5.40;;;13.30;99.90;;;;;;5106696;27;20288;-58
2022/05/14 06:46:04;;;;;;;13.57;6.20;;;13.30;99.90;;;;;;5106613;27;20439;-59
2022/05/14 06:48:31;;;;;;;10.90;7.17;;;13.30;99.90;;;;;;5105430;28;20468;-59
2022/05/14 06:51:01;;;;;;;8.70;5.90;;;13.40;99.90;;;;;;5106067;27;20478;-59
2022/05/14 06:53:28;;;;;;;14.63;7.90;;;13.40;99.90;;;;;;5098804;27;20557;-60
2022/05/14 06:55:57;;;;;;;15.97;8.20;;;13.50;99.90;;;;;;5097344;27;20794;-60
2022/05/14 06:58:28;;;;;;;14.87;7.80;;;13.50;99.90;;;;;;5103383;27;20423;-60
2022/05/14 07:00:54;;;;;;;8.00;6.43;;;13.60;99.90;;;;;;5104916;27;20474;-60
2022/05/14 07:08:50;;;;;;;13.53;7.50;;;13.80;99.90;;;;;;5115807;27;20498;-59
2022/05/14 07:11:16;;;;;;;13.63;7.67;;;14.00;99.90;;;;;;5086472;27;20455;-59
2022/05/14 07:13:42;;;;;;;22.77;7.80;;;14.10;99.90;;;;;;5105664;27;20468;-60
2022/05/14 07:16:08;;;;;;;11.97;7.13;;;14.30;99.90;;;;;;5099787;28;20454;-60
2022/05/14 07:18:33;;;;;;;17.50;6.80;;;14.50;99.90;;;;;;5103799;28;20213;-59
2022/05/14 07:20:59;;;;;;;14.70;6.43;;;14.50;99.90;;;;;;5105483;28;20205;-60
2022/05/14 07:23:25;;;;;;;10.87;5.60;;;14.50;99.90;;;;;;5106206;27;20202;-61
2022/05/14 07:25:51;;;;;;;6.90;4.90;;;14.60;99.70;;;;;;5100841;27;20178;-60
2022/05/14 07:28:17;;;;;;;7.43;4.60;;;14.70;96.30;;;;;;5101603;28;20168;-60
2022/05/14 07:30:43;;;;;;;8.47;4.13;;;14.80;95.90;;;;;;5102342;27;21309;-59
2022/05/14 07:33:09;;;;;;;8.50;3.90;;;14.90;95.90;;;;;;5099142;27;21097;-61
2022/05/14 07:35:35;;;;;;;10.00;3.50;;;15.10;97.80;;;;;;5098701;28;20461;-59
2022/05/14 07:38:03;;;;;;;13.00;4.00;;;15.30;98.30;;;;;;5102218;27;20529;-60
2022/05/14 07:40:33;;;;;;;13.00;5.93;;;15.50;95.90;;;;;;5094522;27;22257;-61
2022/05/14 07:43:08;;;;;;;6.27;3.80;;;15.70;91.10;;;;;;5092375;27;20877;-61
2022/05/14 07:45:37;;;;;;;11.07;3.60;;;15.80;79.60;;;;;;5091607;28;21403;-61
2022/05/14 07:48:06;;;;;;;3.53;2.87;;;15.90;76.00;;;;;;5083981;28;20945;-56
2022/05/14 07:50:32;;;;;;;6.50;3.20;;;16.00;76.70;;;;;;5081500;28;20436;-55
2022/05/14 07:52:59;;;;;;;7.33;2.60;;;16.10;76.80;;;;;;5102835;28;20479;-56
2022/05/14 07:55:25;;;;;;;14.70;2.70;;;16.20;73.40;;;;;;5102271;27;20192;-56
2022/05/14 07:57:50;;;;;;;4.17;2.80;;;16.20;71.10;;;;;;5103546;27;20438;-55
2022/05/14 08:00:17;;;;;;;5.90;2.90;;;16.30;72.20;;;;;;5100769;27;20181;-56
2022/05/14 08:02:45;;;;;;;6.30;4.67;;;16.40;71.20;;;;;;5097277;27;20271;-59
2022/05/14 08:05:14;;;;;;;10.33;3.87;;;16.50;70.60;;;;;;5096704;27;20439;-57
2022/05/14 08:07:39;;;;;;;5.60;3.27;;;16.60;70.70;;;;;;5101691;28;20481;-59
2022/05/14 08:10:07;;;;;;;5.50;3.47;;;16.70;68.80;;;;;;5081435;28;21176;-59
2022/05/14 08:12:55;;;;;;;3.63;2.50;;;16.70;67.50;;;;;;5096192;28;20914;-60
2022/05/14 08:15:23;;;;;;;8.70;2.67;;;16.70;66.00;;;;;;5090809;27;20430;-58
2022/05/14 08:17:49;;;;;;;6.90;2.30;;;16.80;65.20;;;;;;5098017;28;22761;-60
2022/05/14 08:20:15;;;;;;;4.50;2.60;;;16.90;64.50;;;;;;5093260;27;20446;-59
2022/05/14 08:25:27;;;;;;;5.03;2.57;;;16.90;63.50;;;;;;5105594;27;20500;-59
2022/05/14 08:27:53;;;;;;;3.87;2.50;;;17.10;64.00;;;;;;5099996;28;20407;-62
2022/05/14 08:30:25;;;;;;;6.27;2.70;;;17.20;64.50;;;;;;5110049;27;20951;-62
2022/05/14 08:32:51;;;;;;;3.93;2.70;;;17.30;64.60;;;;;;5106083;28;20286;-59
2022/05/14 08:35:18;;;;;;;5.53;2.47;;;17.40;62.80;;;;;;5108982;28;20419;-61
2022/05/14 08:37:44;;;;;;;5.10;2.17;;;17.40;61.40;;;;;;5108848;28;20421;-59
2022/05/14 08:40:28;;;;;;;5.50;2.80;;;17.40;62.80;;;;;;5114295;27;20427;-59
2022/05/14 08:42:57;;;;;;;5.63;2.80;;;17.60;64.60;;;;;;5098737;28;20443;-60
2022/05/14 08:45:25;;;;;;;4.73;2.70;;;17.80;64.30;;;;;;5105975;27;20527;-59
2022/05/14 08:47:59;;;;;;;7.70;2.87;;;18.00;65.50;;;;;;5104899;28;20497;-60
2022/05/14 08:50:35;;;;;;;11.23;2.70;;;18.20;66.50;;;;;;5105190;28;20421;-59
2022/05/14 08:53:03;;;;;;;8.70;2.90;;;18.40;64.10;;;;;;5090869;28;20475;-58
2022/05/14 08:55:43;;;;;;;5.20;2.70;;;18.40;62.20;;;;;;5105731;27;20823;-59
2022/05/14 08:58:21;;;;;;;9.27;2.90;;;18.40;63.20;;;;;;5090085;28;20467;-58
2022/05/14 09:00:46;;;;;;;6.33;3.00;;;18.50;63.10;;;;;;5107809;27;20473;-58
2022/05/14 09:03:12;;;;;;;4.33;2.67;;;18.70;63.10;;;;;;5107263;27;21029;-60
2022/05/14 09:05:38;;;;;;;6.03;2.97;;;18.80;61.60;;;;;;5105520;28;20173;-58
2022/05/14 09:08:04;;;;;;;3.47;2.63;;;18.90;60.40;;;;;;5108349;28;20204;-59
2022/05/14 09:10:41;;;;;;;3.47;2.80;;;19.00;59.30;;;;;;5108944;28;20178;-59
2022/05/14 09:13:20;;;;;;;4.57;3.03;;;19.10;58.10;;;;;;5112390;27;20442;-59
2022/05/14 09:15:51;;;;;;;4.13;3.07;;;19.10;58.70;;;;;;5103902;28;20986;-58
2022/05/14 09:18:24;;;;;;;5.87;3.00;;;19.30;59.30;;;;;;5102626;28;20458;-58
2022/05/14 09:21:06;;;;;;;6.60;3.03;;;19.50;58.50;;;;;;5107337;28;20800;-59
2022/05/14 09:23:37;;;;;;;7.77;2.70;;;19.70;58.80;;;;;;5109119;27;20462;-58
2022/05/14 09:26:20;;;;;;;5.97;2.63;;;19.90;57.70;;;;;;5105383;28;20446;-59
2022/05/14 09:28:48;;;;;;;11.37;3.07;;;20.10;57.60;;;;;;5107858;28;20415;-62
2022/05/14 09:31:34;;;;;;;6.23;3.10;;;20.30;56.00;;;;;;5111185;27;20451;-58
2022/05/14 09:34:03;;;;;;;3.50;2.33;;;20.30;54.70;;;;;;5107779;28;20454;-58
2022/05/14 09:36:30;;;;;;;9.50;3.10;;;20.10;54.50;;;;;;5107248;28;20521;-59
2022/05/14 09:39:06;;;;;;;5.40;2.80;;;20.00;55.60;;;;;;5106171;28;20446;-58
2022/05/14 09:41:43;;;;;;;11.53;2.93;;;20.20;55.10;;;;;;5105353;28;20576;-59
2022/05/14 09:44:19;;;;;;;12.10;2.73;;;20.30;54.70;;;;;;5105160;28;20458;-59
2022/05/14 09:46:45;;;;;;;5.80;3.10;;;20.50;54.60;;;;;;5090010;28;20438;-59
2022/05/14 09:49:21;;;;;;;6.03;2.90;;;20.70;53.90;;;;;;5107763;28;20803;-58
2022/05/14 09:52:00;;;;;;;6.87;3.10;;;20.80;54.00;;;;;;5109443;28;20243;-58
2022/05/14 09:54:47;;;;;;;6.77;2.47;;;20.90;53.50;;;;;;5103700;28;20429;-60
2022/05/14 09:57:40;;;;;;;4.00;2.40;;;20.90;52.60;;;;;;5104394;28;20418;-59
2022/05/14 10:00:29;;;;;;;4.93;2.37;;;21.00;52.90;;;;;;5104293;28;20439;-59
2022/05/14 10:03:18;;;;;;;8.33;3.00;;;21.20;53.00;;;;;;5110452;28;20567;-58
2022/05/14 10:05:51;;;;;;;4.60;2.30;;;21.30;53.20;;;;;;5106122;28;20418;-59
2022/05/14 10:08:37;;;;;;;4.20;2.20;;;21.40;52.90;;;;;;5105672;28;20435;-58
2022/05/14 10:11:15;;;;;;;8.57;2.60;;;21.40;50.50;;;;;;5107436;28;20955;-59
2022/05/14 10:14:00;;;;;;;3.70;2.23;;;21.50;52.30;;;;;;5101793;28;20427;-59
2022/05/14 10:16:36;;;;;;;5.47;2.57;;;21.60;51.60;;;;;;5101297;28;20435;-58
2022/05/14 10:19:20;;;;;;;7.10;2.60;;;21.70;51.10;;;;;;5103171;28;20445;-58
2022/05/14 10:21:58;;;;;;;4.10;2.70;;;21.70;50.10;;;;;;5109507;28;20462;-58
2022/05/14 10:27:36;;;;;;;8.37;2.70;;;21.90;49.40;;;;;;5101956;28;20414;-59
2022/05/14 10:30:21;;;;;;;9.70;2.50;;;22.00;49.30;;;;;;5106064;28;20423;-60
2022/05/14 10:32:52;;;;;;;11.13;2.47;;;22.20;50.70;;;;;;5106415;28;20438;-59
2022/05/14 10:35:27;;;;;;;8.20;2.60;;;22.40;51.10;;;;;;5107692;28;20423;-60
2022/05/14 10:38:14;;;;;;;5.30;2.70;;;22.60;51.10;;;;;;5106300;28;20426;-58
2022/05/14 10:40:48;;;;;;;3.33;2.43;;;22.70;50.00;;;;;;5106943;28;20430;-58
2022/05/14 10:43:45;;;;;;;4.40;2.60;;;22.80;48.20;;;;;;5102733;28;20446;-59
2022/05/14 10:46:16;;;;;;;7.20;2.70;;;22.90;49.20;;;;;;5102786;28;20431;-60
2022/05/14 10:48:54;;;;;;;8.13;2.40;;;23.00;50.00;;;;;;5107435;28;20491;-59
2022/05/14 10:51:24;;;;;;;7.90;2.50;;;23.20;49.70;;;;;;5110498;28;20961;-59
2022/05/14 10:53:50;;;;;;;4.00;2.60;;;23.30;49.60;;;;;;5110004;28;20418;-58
2022/05/14 10:56:30;;;;;;;5.97;3.20;;;23.50;49.00;;;;;;5110203;27;20474;-59
2022/05/14 10:59:00;;;;;;;4.57;2.73;;;23.60;48.50;;;;;;5108699;28;20477;-58
2022/05/14 11:01:46;;;;;;;5.70;3.60;;;23.80;49.80;;;;;;5111607;27;20466;-58
2022/05/14 11:04:47;;;;;;;7.40;2.70;;;23.80;47.00;;;;;;5104207;28;20457;-59
2022/05/14 11:07:27;;;;;;;4.23;2.60;;;23.80;44.30;;;;;;5111347;27;20438;-59
2022/05/14 11:09:54;;;;;;;4.20;2.40;;;23.90;46.10;;;;;;5108902;28;20434;-59
2022/05/14 11:12:19;;;;;;;5.23;2.40;;;23.90;45.90;;;;;;5110004;28;20439;-59
2022/05/14 11:14:48;;;;;;;4.00;2.57;;;24.00;45.80;;;;;;5109534;28;20426;-58
2022/05/14 11:17:25;;;;;;;5.97;2.57;;;24.10;45.50;;;;;;5108938;28;20184;-58
2022/05/14 11:20:08;;;;;;;3.30;2.30;;;24.20;46.10;;;;;;5106278;28;20592;-59
2022/05/14 11:22:41;;;;;;;8.30;2.87;;;24.40;45.70;;;;;;5098490;28;20958;-57
2022/05/14 11:25:22;;;;;;;6.83;2.80;;;24.40;44.10;;;;;;5107438;28;20458;-58
2022/05/14 11:28:08;;;;;;;5.60;2.63;;;24.40;42.00;;;;;;5109123;28;20521;-59
2022/05/14 11:30:42;;;;;;;5.30;3.23;;;24.50;44.20;;;;;;5110659;28;20399;-58
2022/05/14 11:33:27;;;;;;;5.43;3.03;;;24.50;43.60;;;;;;5112277;27;20505;-58
2022/05/14 11:35:59;;;;;;;4.43;2.70;;;24.60;43.00;;;;;;5106504;27;20426;-59
2022/05/14 11:38:24;;;;;;;4.07;2.53;;;24.70;43.90;;;;;;5106578;28;20492;-59
2022/05/14 11:41:02;;;;;;;3.73;2.30;;;24.80;42.90;;;;;;5109440;28;20504;-59
2022/05/14 11:43:31;;;;;;;6.77;2.67;;;24.70;42.10;;;;;;5108863;27;20197;-59
2022/05/14 11:46:18;;;;;;;5.13;2.30;;;24.80;42.30;;;;;;5108377;27;20448;-59
2022/05/14 11:48:53;;;;;;;3.63;2.57;;;24.80;43.30;;;;;;5109751;27;20419;-58
2022/05/14 11:51:34;;;;;;;7.03;2.60;;;24.90;43.60;;;;;;5105629;28;20449;-59
2022/05/14 11:54:07;;;;;;;4.57;2.50;;;25.10;44.20;;;;;;5106857;28;20423;-59
2022/05/14 11:56:44;;;;;;;5.07;2.50;;;25.20;41.50;;;;;;5108849;28;20435;-58
2022/05/14 11:59:18;;;;;;;3.00;2.00;;;25.20;42.20;;;;;;5103974;27;20435;-59
2022/05/14 12:01:46;;;;;;;8.70;3.73;;;25.30;43.40;;;;;;5070615;28;20460;-57
2022/05/14 12:04:27;;;;;;;4.90;2.50;;;25.40;40.90;;;;;;5095535;28;20501;-57
2022/05/14 12:07:06;;;;;;;2.60;2.40;;;25.40;41.70;;;;;;5103885;28;20438;-57
2022/05/14 12:09:43;;;;;;;5.43;2.40;;;25.40;41.50;;;;;;5105082;27;20446;-57
2022/05/14 12:12:50;;;;;;;3.40;2.33;;;25.60;41.90;;;;;;5101377;28;20449;-58
2022/05/14 12:15:21;;;;;;;6.87;2.43;;;25.70;41.60;;;;;;5002115;28;20984;-57
2022/05/14 12:17:52;;;;;;;2.83;2.53;;;25.70;41.40;;;;;;4997943;28;20535;-57
2022/05/14 12:20:22;;;;;;;4.20;2.80;;;25.70;39.40;;;;;;5056481;28;20427;-59
2022/05/14 12:22:59;;;;;;;4.70;2.30;;;25.50;40.20;;;;;;5099980;28;20535;-59
2022/05/14 12:25:43;;;;;;;5.40;2.67;;;25.50;41.00;;;;;;5097160;27;20804;-57
2022/05/14 12:28:30;;;;;;;3.90;2.30;;;25.70;42.00;;;;;;5099517;28;21221;-58
2022/05/14 12:34:03;;;;;;;3.10;2.77;;;26.10;41.00;;;;;;5100636;28;20430;-59
2022/05/14 12:36:51;;;;;;;16.73;2.60;;;26.20;40.00;;;;;;5100152;27;20453;-59
2022/05/14 12:39:20;;;;;;;9.23;2.33;;;26.30;41.00;;;;;;5101560;28;20429;-58
2022/05/14 12:41:52;;;;;;;6.10;2.40;;;26.40;41.80;;;;;;5102503;28;20442;-59
2022/05/14 12:44:21;;;;;;;3.60;2.57;;;26.60;39.80;;;;;;5096062;27;20508;-59
2022/05/14 12:46:53;;;;;;;4.50;2.80;;;26.80;40.10;;;;;;5101184;27;20553;-56
2022/05/14 12:49:41;;;;;;;5.50;2.60;;;27.00;41.30;;;;;;5103119;28;20414;-59
2022/05/14 12:52:20;;;;;;;3.67;2.57;;;27.20;42.00;;;;;;5094991;28;20439;-61
2022/05/14 12:55:09;;;;;;;5.90;3.10;;;27.30;40.70;;;;;;5096079;28;20773;-60
2022/05/14 12:57:37;;;;;;;3.33;2.20;;;27.40;39.40;;;;;;5091664;28;20434;-59
2022/05/14 13:00:06;;;;;;;12.13;2.60;;;27.40;37.70;;;;;;5097920;28;20791;-60
2022/05/14 13:02:36;;;;;;;11.43;2.57;;;27.30;37.70;;;;;;5100187;27;21042;-58
2022/05/14 13:05:09;;;;;;;6.27;2.63;;;27.30;37.30;;;;;;5094874;28;20268;-59
2022/05/14 13:07:58;;;;;;;3.07;2.20;;;27.30;36.50;;;;;;5098137;28;20520;-58
2022/05/14 13:10:28;;;;;;;4.13;2.43;;;27.20;38.50;;;;;;5099992;27;20208;-56
2022/05/14 13:13:06;;;;;;;3.80;2.30;;;27.30;38.30;;;;;;5096038;28;20650;-59
2022/05/14 13:15:37;;;;;;;4.17;2.67;;;27.40;37.30;;;;;;5095906;27;20700;-59
2022/05/14 13:18:21;;;;;;;3.77;2.63;;;27.50;38.50;;;;;;5100527;27;20188;-60
2022/05/14 13:20:48;;;;;;;6.10;2.60;;;27.60;37.40;;;;;;5100075;27;20265;-59
2022/05/14 13:23:20;;;;;;;7.37;2.47;;;27.60;37.10;;;;;;5102698;28;20197;-58